Time;durP1;ratioP1;P1;durP2;ratioP2;P2;SDS_P1;SDS_P2;PMS_P1;PMS_P2;Temp;Humidity;BMP_temperature;BMP_pressure;BME280_temperature;BME280_humidity;BME280_pressure;Samples;Min_cycle;Max_cycle;Signal;HPM_P1;HPM_P2
2023/03/12 00:00:07;;;;;;;5.80;4.47;;;20.60;28.30;;;;;;5051656;28;20032;-52
2023/03/12 00:02:34;;;;;;;8.07;5.18;;;20.60;28.30;;;;;;5048615;28;20045;-55
2023/03/12 00:04:59;;;;;;;7.38;4.60;;;20.60;28.30;;;;;;5051090;28;20040;-52
2023/03/12 00:07:25;;;;;;;6.47;4.50;;;20.60;28.30;;;;;;5051329;28;20041;-54
2023/03/12 00:09:51;;;;;;;8.00;4.47;;;20.60;28.40;;;;;;5047900;28;20108;-53
2023/03/12 00:12:18;;;;;;;6.38;4.05;;;20.60;28.50;;;;;;5049574;28;20040;-53
2023/03/12 00:14:44;;;;;;;6.00;4.47;;;20.60;28.50;;;;;;5051369;28;20078;-53
2023/03/12 00:17:10;;;;;;;9.38;4.40;;;20.60;28.40;;;;;;5050932;28;20149;-53
2023/03/12 00:19:36;;;;;;;6.35;4.03;;;20.60;28.40;;;;;;5050177;28;20129;-52
2023/03/12 00:22:02;;;;;;;5.97;3.97;;;20.50;28.40;;;;;;5040514;28;20352;-50
2023/03/12 00:24:27;;;;;;;8.38;4.28;;;20.60;28.50;;;;;;5057676;28;20025;-53
2023/03/12 00:26:53;;;;;;;5.95;3.80;;;20.50;28.40;;;;;;5056160;28;20428;-54
2023/03/12 00:29:19;;;;;;;5.90;3.65;;;20.50;28.40;;;;;;5055639;28;20025;-54
2023/03/12 00:31:45;;;;;;;5.18;3.65;;;20.50;28.40;;;;;;5055420;28;20037;-52
2023/03/12 00:34:11;;;;;;;5.10;3.50;;;20.50;28.30;;;;;;5054846;28;20095;-53
2023/03/12 00:36:37;;;;;;;5.50;3.83;;;20.50;28.30;;;;;;5046658;28;20510;-53
2023/03/12 00:39:03;;;;;;;6.95;4.03;;;20.50;28.30;;;;;;5055762;28;20040;-52
2023/03/12 00:41:29;;;;;;;5.60;3.38;;;20.50;28.20;;;;;;5055113;28;20398;-55
2023/03/12 00:43:56;;;;;;;5.60;3.45;;;20.50;28.20;;;;;;5053909;28;20036;-52
2023/03/12 00:46:22;;;;;;;4.80;3.30;;;20.50;28.10;;;;;;5043156;28;20044;-52
2023/03/12 00:48:48;;;;;;;5.35;2.85;;;20.50;28.10;;;;;;5070549;28;20017;-50
2023/03/12 00:51:14;;;;;;;4.97;3.05;;;20.50;28.10;;;;;;5040935;28;20076;-52
2023/03/12 00:53:40;;;;;;;5.50;3.00;;;20.40;28.00;;;;;;5052668;28;20061;-49
2023/03/12 00:56:06;;;;;;;4.88;2.70;;;20.50;28.00;;;;;;5055427;28;20463;-53
2023/03/12 00:58:32;;;;;;;4.72;2.50;;;20.50;28.00;;;;;;5065541;28;20035;-51
2023/03/12 01:00:58;;;;;;;3.95;2.63;;;20.40;28.00;;;;;;5074533;28;20360;-50
2023/03/12 01:03:24;;;;;;;5.35;2.85;;;20.40;27.90;;;;;;5075821;28;20029;-51
2023/03/12 01:05:53;;;;;;;3.70;2.60;;;20.40;27.90;;;;;;5060196;28;20337;-54
2023/03/12 01:08:20;;;;;;;4.65;2.80;;;20.40;27.90;;;;;;5053733;28;20048;-54
2023/03/12 01:10:46;;;;;;;4.18;2.28;;;20.40;27.90;;;;;;5045879;28;20032;-52
2023/03/12 01:13:12;;;;;;;4.68;2.40;;;20.40;27.90;;;;;;5074159;28;20047;-50
2023/03/12 01:15:38;;;;;;;4.40;2.28;;;20.40;27.90;;;;;;5054046;28;20052;-53
2023/03/12 01:18:04;;;;;;;3.42;2.72;;;20.40;27.90;;;;;;5040090;28;20334;-49
2023/03/12 01:20:29;;;;;;;4.28;2.70;;;20.40;27.90;;;;;;5054939;28;20444;-51
2023/03/12 01:22:55;;;;;;;4.97;2.53;;;20.40;27.90;;;;;;5053936;28;20102;-53
2023/03/12 01:25:21;;;;;;;4.03;2.55;;;20.40;27.90;;;;;;5055455;28;20112;-53
2023/03/12 01:27:47;;;;;;;4.20;2.47;;;20.40;27.90;;;;;;5054940;28;20037;-48
2023/03/12 01:30:13;;;;;;;4.25;2.63;;;20.40;27.90;;;;;;5054041;28;20031;-52
2023/03/12 01:32:39;;;;;;;3.40;2.33;;;20.40;27.90;;;;;;5053928;28;20043;-52
2023/03/12 01:35:06;;;;;;;3.72;2.42;;;20.40;27.90;;;;;;5052380;28;20108;-50
2023/03/12 01:37:32;;;;;;;4.18;2.60;;;20.30;27.80;;;;;;5054446;28;20524;-49
2023/03/12 01:39:58;;;;;;;6.25;2.45;;;20.30;27.80;;;;;;5054712;28;20029;-51
2023/03/12 01:42:24;;;;;;;4.50;2.50;;;20.30;27.80;;;;;;5053811;28;20032;-51
2023/03/12 01:44:59;;;;;;;3.63;2.22;;;20.30;27.80;;;;;;5046107;28;20021;-49
2023/03/12 01:47:30;;;;;;;4.13;2.28;;;20.30;27.80;;;;;;5052887;28;20033;-53
2023/03/12 01:49:58;;;;;;;3.67;2.50;;;20.30;27.80;;;;;;5053762;28;20040;-54
2023/03/12 01:52:31;;;;;;;3.17;2.28;;;20.30;27.80;;;;;;5048269;28;20029;-53
2023/03/12 01:55:12;;;;;;;5.97;2.40;;;20.30;27.80;;;;;;5052768;28;20094;-53
2023/03/12 01:57:46;;;;;;;3.33;2.15;;;20.30;27.80;;;;;;5057463;28;20032;-49
2023/03/12 02:00:18;;;;;;;3.45;2.00;;;20.30;27.80;;;;;;5073308;28;20360;-51
2023/03/12 02:02:45;;;;;;;3.45;1.92;;;20.30;27.80;;;;;;5066205;28;20021;-53
2023/03/12 02:05:29;;;;;;;3.60;2.10;;;20.20;27.70;;;;;;5052130;28;20029;-52
2023/03/12 02:07:56;;;;;;;4.20;2.03;;;20.30;27.70;;;;;;5052419;28;20097;-52
2023/03/12 02:10:23;;;;;;;3.40;1.90;;;20.20;27.70;;;;;;5054765;28;20029;-55
2023/03/12 02:12:49;;;;;;;3.78;2.10;;;20.20;27.80;;;;;;5053444;28;20033;-53
2023/03/12 02:15:15;;;;;;;3.25;1.98;;;20.30;27.80;;;;;;5053478;28;20110;-52
2023/03/12 02:17:41;;;;;;;3.50;1.80;;;20.20;27.70;;;;;;5054119;28;20044;-51
2023/03/12 02:20:26;;;;;;;2.97;1.90;;;20.20;27.70;;;;;;5054906;28;20037;-52
2023/03/12 02:23:07;;;;;;;3.67;2.05;;;20.20;27.80;;;;;;5053611;28;20371;-50
2023/03/12 02:25:41;;;;;;;3.42;2.00;;;20.20;27.70;;;;;;5052120;28;20452;-53
2023/03/12 02:28:12;;;;;;;4.40;1.90;;;20.20;27.80;;;;;;5053528;28;20068;-53
2023/03/12 02:30:41;;;;;;;2.75;1.88;;;20.20;27.80;;;;;;5053317;28;20412;-49
2023/03/12 02:33:08;;;;;;;3.13;1.90;;;20.20;27.80;;;;;;5053596;28;20058;-53
2023/03/12 02:35:35;;;;;;;3.45;1.73;;;20.20;27.80;;;;;;5055545;28;20043;-51
2023/03/12 02:38:21;;;;;;;2.83;1.90;;;20.20;27.80;;;;;;5055853;28;20047;-52
2023/03/12 02:40:48;;;;;;;2.50;1.80;;;20.20;27.80;;;;;;5073670;28;20037;-52
2023/03/12 02:43:20;;;;;;;3.70;2.17;;;20.20;27.90;;;;;;5059510;28;20514;-52
2023/03/12 02:45:46;;;;;;;4.75;1.83;;;20.10;27.90;;;;;;5057397;28;20112;-54
2023/03/12 02:48:13;;;;;;;3.03;1.77;;;20.10;27.90;;;;;;5057257;28;20045;-54
2023/03/12 02:50:39;;;;;;;3.78;1.70;;;20.10;27.90;;;;;;5056405;28;20100;-50
2023/03/12 02:53:05;;;;;;;2.92;1.70;;;20.10;27.90;;;;;;5051785;28;20411;-51
2023/03/12 02:55:31;;;;;;;3.70;1.63;;;20.10;28.00;;;;;;5038181;28;20040;-50
2023/03/12 02:57:57;;;;;;;2.30;1.42;;;20.10;28.00;;;;;;5055600;28;20021;-51
2023/03/12 03:00:24;;;;;;;2.75;1.50;;;20.10;28.00;;;;;;5037248;28;20063;-50
2023/03/12 03:02:51;;;;;;;3.83;1.45;;;20.10;28.00;;;;;;5036591;28;20044;-49
2023/03/12 03:05:19;;;;;;;2.45;1.48;;;20.10;28.00;;;;;;5037245;28;20109;-50
2023/03/12 03:07:45;;;;;;;3.35;1.85;;;20.10;28.00;;;;;;5046480;28;20102;-54
2023/03/12 03:10:11;;;;;;;2.38;1.40;;;20.10;27.90;;;;;;5064146;28;20036;-53
2023/03/12 03:12:38;;;;;;;2.28;1.35;;;20.10;27.90;;;;;;5057362;28;20021;-51
2023/03/12 03:15:05;;;;;;;3.13;1.33;;;20.00;27.90;;;;;;5055333;28;20051;-50
2023/03/12 03:17:31;;;;;;;2.92;1.50;;;20.00;27.90;;;;;;5073793;28;20064;-53
2023/03/12 03:19:57;;;;;;;3.03;1.23;;;20.10;27.90;;;;;;5056415;28;20129;-50
2023/03/12 03:22:23;;;;;;;2.47;1.33;;;20.10;27.90;;;;;;5048077;28;20026;-54
2023/03/12 03:24:49;;;;;;;2.28;1.40;;;20.00;27.90;;;;;;5037670;28;20061;-52
2023/03/12 03:27:15;;;;;;;2.95;1.85;;;20.00;27.80;;;;;;5037395;28;20069;-48
2023/03/12 03:29:44;;;;;;;4.28;1.48;;;20.00;27.90;;;;;;5035985;28;20480;-52
2023/03/12 03:32:10;;;;;;;3.25;1.63;;;20.00;27.90;;;;;;5050820;28;20124;-53
2023/03/12 03:34:35;;;;;;;2.60;1.20;;;20.00;27.90;;;;;;5078038;28;20546;-52
2023/03/12 03:37:01;;;;;;;3.17;1.27;;;20.00;27.90;;;;;;5072431;28;20215;-50
2023/03/12 03:39:29;;;;;;;2.65;1.40;;;20.00;27.80;;;;;;5052827;28;20029;-52
2023/03/12 03:41:55;;;;;;;2.70;1.40;;;20.00;27.80;;;;;;5056500;28;20029;-54
2023/03/12 03:44:23;;;;;;;3.35;1.67;;;20.00;27.80;;;;;;5039327;28;20452;-54
2023/03/12 03:46:50;;;;;;;2.72;1.40;;;20.00;27.80;;;;;;5044633;28;20032;-54
2023/03/12 03:49:16;;;;;;;2.60;1.40;;;20.00;27.80;;;;;;5055346;28;20029;-51
2023/03/12 03:51:42;;;;;;;4.55;1.83;;;20.00;27.80;;;;;;5055039;28;20048;-52
2023/03/12 03:54:11;;;;;;;2.60;1.30;;;20.00;27.80;;;;;;5062766;28;20033;-50
2023/03/12 03:56:39;;;;;;;2.20;1.30;;;20.00;27.80;;;;;;5076010;28;20094;-55
2023/03/12 03:59:06;;;;;;;2.13;1.45;;;20.00;27.80;;;;;;5056729;28;20036;-49
2023/03/12 04:01:35;;;;;;;2.25;1.42;;;20.00;27.80;;;;;;5036828;28;20128;-52
2023/03/12 04:04:02;;;;;;;2.47;1.40;;;20.00;27.80;;;;;;5049623;28;20067;-53
2023/03/12 04:06:30;;;;;;;3.97;1.67;;;19.90;27.80;;;;;;5055704;28;20033;-53
2023/03/12 04:08:57;;;;;;;2.63;1.42;;;20.00;27.80;;;;;;5054295;28;20025;-53
2023/03/12 04:11:24;;;;;;;2.78;1.38;;;19.90;27.80;;;;;;5053691;28;20025;-53
2023/03/12 04:13:50;;;;;;;2.78;1.40;;;19.90;27.80;;;;;;5055522;28;20033;-54
2023/03/12 04:16:19;;;;;;;2.60;1.20;;;19.90;27.80;;;;;;5055511;28;20029;-52
2023/03/12 04:18:46;;;;;;;2.10;1.25;;;19.90;27.80;;;;;;5054233;28;20029;-50
2023/03/12 04:21:13;;;;;;;2.40;1.20;;;19.90;27.90;;;;;;5055513;28;20028;-53
2023/03/12 04:23:41;;;;;;;3.55;1.50;;;19.90;27.90;;;;;;5037648;28;20464;-49
2023/03/12 04:26:08;;;;;;;2.78;1.73;;;19.90;27.90;;;;;;5054805;28;20071;-51
2023/03/12 04:28:36;;;;;;;2.38;1.20;;;19.90;27.90;;;;;;5055330;28;20037;-52
2023/03/12 04:31:04;;;;;;;2.22;1.20;;;19.90;27.90;;;;;;5055236;28;20032;-53
2023/03/12 04:33:37;;;;;;;2.55;1.30;;;19.90;28.00;;;;;;5055310;28;20479;-48
2023/03/12 04:36:05;;;;;;;2.58;1.30;;;19.90;28.00;;;;;;5053618;28;20040;-52
2023/03/12 04:38:32;;;;;;;2.40;1.10;;;19.90;28.00;;;;;;5054734;28;20033;-51
2023/03/12 04:41:06;;;;;;;2.65;1.23;;;19.90;28.00;;;;;;5054991;28;20029;-53
2023/03/12 04:43:34;;;;;;;2.92;1.17;;;19.90;28.00;;;;;;5053966;28;20387;-52
2023/03/12 04:46:01;;;;;;;2.35;1.15;;;19.90;28.10;;;;;;5055906;28;20151;-50
2023/03/12 04:48:27;;;;;;;3.08;1.10;;;19.90;28.10;;;;;;5054474;28;20033;-49
2023/03/12 04:50:53;;;;;;;2.88;1.20;;;19.80;28.10;;;;;;5038391;28;20029;-47
2023/03/12 04:53:20;;;;;;;2.08;1.00;;;19.80;28.10;;;;;;5054371;28;20108;-54
2023/03/12 04:55:47;;;;;;;2.72;1.40;;;19.80;28.10;;;;;;5054592;28;20044;-51
2023/03/12 04:58:14;;;;;;;2.47;1.23;;;19.80;28.20;;;;;;5046797;28;20033;-53
2023/03/12 05:00:41;;;;;;;2.00;1.00;;;19.80;28.20;;;;;;5042073;28;20021;-51
2023/03/12 05:03:07;;;;;;;2.75;1.33;;;19.80;28.20;;;;;;5054742;28;20094;-49
2023/03/12 05:05:34;;;;;;;2.72;1.33;;;19.80;28.30;;;;;;5055529;28;20059;-54
2023/03/12 05:08:02;;;;;;;2.45;1.20;;;19.80;28.40;;;;;;5053054;28;20131;-49
2023/03/12 05:10:28;;;;;;;1.70;1.05;;;19.80;28.50;;;;;;5052451;28;20021;-50
2023/03/12 05:12:54;;;;;;;3.65;1.27;;;19.80;28.60;;;;;;5043935;28;20079;-51
2023/03/12 05:15:20;;;;;;;2.15;1.00;;;19.80;28.60;;;;;;5034362;28;20164;-49
2023/03/12 05:17:46;;;;;;;4.70;1.40;;;19.80;28.60;;;;;;5037475;28;20040;-52
2023/03/12 05:20:12;;;;;;;1.73;1.10;;;19.80;28.60;;;;;;5053774;28;20123;-53
2023/03/12 05:22:39;;;;;;;1.40;0.80;;;19.80;28.60;;;;;;5050647;28;20117;-52
2023/03/12 05:25:06;;;;;;;3.17;1.52;;;19.80;28.60;;;;;;5038614;28;20116;-51
2023/03/12 05:27:32;;;;;;;2.47;1.17;;;19.70;28.60;;;;;;5034320;28;20041;-49
2023/03/12 05:29:58;;;;;;;2.05;0.98;;;19.70;28.60;;;;;;5067144;28;20070;-52
2023/03/12 05:32:25;;;;;;;1.88;0.75;;;19.80;28.70;;;;;;5053984;28;20070;-51
2023/03/12 05:34:51;;;;;;;1.58;1.00;;;19.70;28.60;;;;;;5053990;28;20032;-47
2023/03/12 05:37:17;;;;;;;2.13;1.20;;;19.70;28.60;;;;;;5053133;28;20033;-53
2023/03/12 05:39:47;;;;;;;3.88;1.30;;;19.70;28.60;;;;;;5054134;28;20352;-51
2023/03/12 05:42:15;;;;;;;2.85;1.30;;;19.70;28.60;;;;;;5051423;28;20087;-53
2023/03/12 05:44:41;;;;;;;2.78;1.05;;;19.70;28.60;;;;;;5067951;28;20028;-50
2023/03/12 05:47:10;;;;;;;4.15;1.25;;;19.70;28.70;;;;;;5033947;28;20188;-53
2023/03/12 05:49:38;;;;;;;2.60;1.40;;;19.80;28.80;;;;;;5033769;28;20026;-50
2023/03/12 05:52:04;;;;;;;2.38;0.98;;;19.70;28.80;;;;;;5038052;28;20021;-52
2023/03/12 05:54:30;;;;;;;2.75;1.27;;;19.70;28.80;;;;;;5053785;28;20086;-53
2023/03/12 05:56:56;;;;;;;2.15;1.00;;;19.70;28.80;;;;;;5051870;28;20044;-54
2023/03/12 05:59:24;;;;;;;1.88;1.10;;;19.70;28.70;;;;;;5052442;28;20353;-50
2023/03/12 06:01:51;;;;;;;1.77;1.00;;;19.70;28.70;;;;;;5072199;28;20048;-54
2023/03/12 06:04:17;;;;;;;2.70;1.25;;;19.70;28.70;;;;;;5073624;28;20033;-50
2023/03/12 06:06:44;;;;;;;3.60;1.10;;;19.70;28.70;;;;;;5074044;28;20429;-53
2023/03/12 06:09:10;;;;;;;1.92;1.05;;;19.70;28.70;;;;;;5055694;28;20049;-49
2023/03/12 06:11:36;;;;;;;2.17;1.08;;;19.70;28.70;;;;;;5056922;28;20025;-52
2023/03/12 06:14:02;;;;;;;1.73;1.05;;;19.70;28.70;;;;;;5072498;28;20044;-50
2023/03/12 06:16:29;;;;;;;2.97;1.30;;;19.70;28.70;;;;;;5077813;28;20064;-51
2023/03/12 06:18:59;;;;;;;2.10;1.20;;;19.70;28.70;;;;;;5061473;28;20123;-50
2023/03/12 06:21:28;;;;;;;2.78;0.95;;;19.70;28.70;;;;;;5056128;28;20040;-53
2023/03/12 06:23:54;;;;;;;3.72;0.90;;;19.70;28.70;;;;;;5056687;28;20049;-49
2023/03/12 06:26:39;;;;;;;1.52;0.85;;;19.70;28.70;;;;;;5057578;28;20115;-50
2023/03/12 06:29:06;;;;;;;2.10;1.00;;;19.70;28.70;;;;;;5058191;28;20533;-50
2023/03/12 06:31:31;;;;;;;3.08;1.20;;;19.70;28.70;;;;;;5058265;28;20052;-54
2023/03/12 06:33:57;;;;;;;2.38;1.10;;;19.60;28.70;;;;;;5069208;28;20033;-49
2023/03/12 06:36:23;;;;;;;2.63;1.10;;;19.60;28.70;;;;;;5047378;28;20076;-49
2023/03/12 06:38:50;;;;;;;2.22;0.93;;;19.60;28.70;;;;;;5052919;28;20033;-54
2023/03/12 06:41:18;;;;;;;3.30;1.13;;;19.60;28.70;;;;;;5057246;28;20021;-54
2023/03/12 06:43:45;;;;;;;2.35;1.10;;;19.60;28.80;;;;;;5069339;28;20086;-51
2023/03/12 06:46:13;;;;;;;1.77;0.90;;;19.60;28.80;;;;;;5074263;28;20460;-53
2023/03/12 06:48:40;;;;;;;3.05;1.27;;;19.60;28.80;;;;;;5058184;28;20040;-50
2023/03/12 06:51:10;;;;;;;2.17;0.98;;;19.60;28.90;;;;;;5057048;28;20075;-52
2023/03/12 06:53:36;;;;;;;2.13;1.10;;;19.60;28.90;;;;;;5057958;28;20490;-52
2023/03/12 06:56:03;;;;;;;1.77;1.10;;;19.60;28.90;;;;;;5057429;28;20051;-48
2023/03/12 06:58:29;;;;;;;2.13;1.05;;;19.60;28.90;;;;;;5057463;28;20037;-50
2023/03/12 07:00:55;;;;;;;3.03;1.10;;;19.60;28.90;;;;;;5058316;28;20043;-53
2023/03/12 07:03:21;;;;;;;2.58;1.27;;;19.60;28.90;;;;;;5047063;28;20057;-51
2023/03/12 07:05:48;;;;;;;4.07;1.02;;;19.60;29.00;;;;;;5053245;28;20480;-51
2023/03/12 07:08:14;;;;;;;3.47;1.10;;;19.60;29.00;;;;;;5057868;28;20045;-48
2023/03/12 07:10:40;;;;;;;2.70;0.90;;;19.60;29.00;;;;;;5068072;28;20460;-49
2023/03/12 07:13:06;;;;;;;1.48;1.08;;;19.60;29.10;;;;;;5077157;28;20111;-52
2023/03/12 07:15:33;;;;;;;1.95;1.00;;;19.60;29.20;;;;;;5056623;28;20144;-51
2023/03/12 07:18:00;;;;;;;3.03;1.25;;;19.60;29.20;;;;;;5056102;28;20053;-52
2023/03/12 07:20:26;;;;;;;2.45;1.23;;;19.60;29.20;;;;;;5057675;28;20033;-51
2023/03/12 07:22:52;;;;;;;2.70;0.98;;;19.60;29.30;;;;;;5058479;28;20029;-50
2023/03/12 07:25:18;;;;;;;2.40;1.13;;;19.60;29.30;;;;;;5056521;28;20051;-53
2023/03/12 07:27:43;;;;;;;2.78;0.90;;;19.60;29.30;;;;;;5057154;28;20086;-54
2023/03/12 07:30:10;;;;;;;1.35;0.75;;;19.60;29.40;;;;;;5055229;28;20103;-52
2023/03/12 07:32:36;;;;;;;2.75;1.20;;;19.60;29.40;;;;;;5056064;28;20029;-54
2023/03/12 07:35:03;;;;;;;2.63;1.17;;;19.60;29.50;;;;;;5050944;28;20338;-50
2023/03/12 07:37:29;;;;;;;1.77;0.90;;;19.60;29.50;;;;;;5039922;28;20026;-54
2023/03/12 07:39:55;;;;;;;2.33;1.10;;;19.60;29.50;;;;;;5037270;28;20032;-52
2023/03/12 07:42:22;;;;;;;1.80;0.88;;;19.60;29.60;;;;;;5037519;28;20030;-53
2023/03/12 07:44:47;;;;;;;1.52;0.77;;;19.60;29.60;;;;;;5042097;28;20044;-51
2023/03/12 07:47:13;;;;;;;2.97;1.20;;;19.50;29.60;;;;;;5056027;28;20530;-52
2023/03/12 07:49:40;;;;;;;3.08;0.93;;;19.50;29.60;;;;;;5049506;28;20021;-51
2023/03/12 07:52:10;;;;;;;2.45;1.15;;;19.60;29.70;;;;;;5053169;28;20135;-48
2023/03/12 07:54:39;;;;;;;3.53;1.10;;;19.50;29.80;;;;;;5057226;28;20036;-51
2023/03/12 07:57:05;;;;;;;1.85;0.90;;;19.50;29.80;;;;;;5059683;28;20036;-50
2023/03/12 07:59:32;;;;;;;4.22;0.88;;;19.50;29.90;;;;;;5058750;28;20040;-54
2023/03/12 08:01:58;;;;;;;3.05;1.05;;;19.50;29.90;;;;;;5055089;28;20029;-51
2023/03/12 08:04:23;;;;;;;3.33;1.00;;;19.50;30.00;;;;;;5054557;28;20029;-52
2023/03/12 08:06:49;;;;;;;1.73;1.02;;;19.50;30.00;;;;;;5052209;28;20052;-51
2023/03/12 08:09:15;;;;;;;2.88;1.20;;;19.50;30.00;;;;;;5052496;28;20428;-51
2023/03/12 08:11:41;;;;;;;2.05;0.98;;;19.40;30.00;;;;;;5055249;28;20029;-50
2023/03/12 08:14:07;;;;;;;2.22;0.82;;;19.50;30.10;;;;;;5056545;28;20056;-51
2023/03/12 08:16:33;;;;;;;3.53;1.30;;;19.40;30.20;;;;;;5055942;28;20098;-50
2023/03/12 08:18:58;;;;;;;2.97;1.10;;;19.50;30.30;;;;;;5061110;28;20429;-50
2023/03/12 08:21:24;;;;;;;2.40;1.17;;;19.40;30.30;;;;;;5076287;28;20035;-49
2023/03/12 08:23:50;;;;;;;4.30;1.50;;;19.40;30.40;;;;;;5048031;28;20468;-49
2023/03/12 08:26:16;;;;;;;3.13;1.23;;;19.40;30.50;;;;;;5068827;28;20448;-54
2023/03/12 08:28:42;;;;;;;3.72;1.90;;;19.40;30.60;;;;;;5056344;28;20048;-51
2023/03/12 08:31:08;;;;;;;2.63;1.55;;;19.40;30.60;;;;;;5055801;28;20037;-54
2023/03/12 08:33:34;;;;;;;3.20;1.75;;;19.40;30.70;;;;;;5054675;28;20509;-50
2023/03/12 08:36:00;;;;;;;2.80;1.85;;;19.40;30.80;;;;;;5055805;28;20093;-51
2023/03/12 08:38:26;;;;;;;2.90;1.85;;;19.40;30.90;;;;;;5055232;28;20433;-50
2023/03/12 08:40:59;;;;;;;3.78;2.42;;;19.40;31.00;;;;;;5060430;28;20021;-50
2023/03/12 08:43:26;;;;;;;4.03;2.75;;;19.40;31.10;;;;;;5056147;28;20104;-52
2023/03/12 08:45:54;;;;;;;5.28;2.83;;;19.40;31.20;;;;;;5058200;28;20124;-50
2023/03/12 08:48:20;;;;;;;6.25;3.40;;;19.40;31.30;;;;;;5056030;28;20080;-53
2023/03/12 08:50:46;;;;;;;4.95;3.05;;;19.40;31.30;;;;;;5056237;28;20056;-49
2023/03/12 08:53:12;;;;;;;3.92;2.83;;;19.40;31.50;;;;;;5053797;28;20029;-51
2023/03/12 08:55:38;;;;;;;5.97;3.40;;;19.40;31.60;;;;;;5055801;28;20033;-54
2023/03/12 08:58:03;;;;;;;5.55;3.85;;;19.40;31.70;;;;;;5049924;28;20407;-54
2023/03/12 09:00:29;;;;;;;6.80;4.65;;;19.40;31.80;;;;;;5071622;28;20075;-52
2023/03/12 09:02:57;;;;;;;6.70;4.03;;;19.40;31.90;;;;;;5062516;28;20029;-51
2023/03/12 09:05:29;;;;;;;6.35;4.22;;;19.40;31.90;;;;;;5055849;28;20097;-53
2023/03/12 09:07:56;;;;;;;6.68;4.25;;;19.40;31.90;;;;;;5053106;28;20064;-53
2023/03/12 09:10:23;;;;;;;6.93;4.40;;;19.40;32.00;;;;;;5055192;28;20037;-52
2023/03/12 09:12:48;;;;;;;7.03;4.43;;;19.50;32.20;;;;;;5055738;28;20349;-54
2023/03/12 09:15:14;;;;;;;7.63;4.75;;;19.50;32.20;;;;;;5042526;28;20038;-53
2023/03/12 09:17:40;;;;;;;6.72;4.97;;;19.60;32.20;;;;;;5037920;28;20167;-53
2023/03/12 09:20:12;;;;;;;7.72;5.20;;;19.60;32.20;;;;;;5055295;28;20063;-55
2023/03/12 09:22:38;;;;;;;7.63;5.15;;;19.70;32.30;;;;;;5055556;28;20029;-50
2023/03/12 09:25:06;;;;;;;8.73;5.72;;;19.70;32.20;;;;;;5055601;28;20029;-54
2023/03/12 09:27:40;;;;;;;7.70;5.65;;;19.80;32.30;;;;;;5055285;28;20055;-50
2023/03/12 09:30:08;;;;;;;8.45;6.10;;;19.80;32.30;;;;;;5054863;28;20036;-51
2023/03/12 09:32:34;;;;;;;8.25;6.13;;;19.90;32.30;;;;;;5050705;28;20020;-51
2023/03/12 09:35:00;;;;;;;9.13;6.53;;;19.90;32.30;;;;;;5070239;28;20021;-50
2023/03/12 09:37:26;;;;;;;8.60;6.18;;;20.00;32.30;;;;;;5053793;28;20041;-54
2023/03/12 09:39:52;;;;;;;8.88;6.32;;;20.10;32.30;;;;;;5055492;28;20039;-53
2023/03/12 09:42:45;;;;;;;9.82;6.95;;;20.10;32.30;;;;;;5055547;28;20310;-51
2023/03/12 09:45:21;;;;;;;12.70;7.20;;;20.20;32.70;;;;;;5052365;28;20029;-54
2023/03/12 09:47:56;;;;;;;12.27;7.80;;;20.30;32.50;;;;;;5055094;28;20041;-51
2023/03/12 09:50:38;;;;;;;12.07;8.73;;;20.30;32.70;;;;;;5051355;28;20032;-52
2023/03/12 09:53:19;;;;;;;14.70;10.35;;;20.30;33.10;;;;;;5055691;28;20025;-51
2023/03/12 09:55:48;;;;;;;15.57;11.68;;;20.40;33.80;;;;;;5058341;28;20024;-52
2023/03/12 09:58:24;;;;;;;15.55;11.43;;;20.50;34.50;;;;;;5056035;28;20456;-57
2023/03/12 10:01:12;;;;;;;16.85;12.30;;;20.50;35.00;;;;;;5052557;28;20108;-51
2023/03/12 10:04:02;;;;;;;18.15;13.25;;;20.60;35.20;;;;;;5049579;28;20029;-58
2023/03/12 10:07:08;;;;;;;20.42;14.07;;;20.60;35.50;;;;;;5048183;28;20032;-56
2023/03/12 10:10:08;;;;;;;17.88;12.95;;;20.70;35.80;;;;;;5044824;28;20072;-56
2023/03/12 10:12:46;;;;;;;18.15;13.50;;;20.70;36.10;;;;;;5057616;28;20544;-54
2023/03/12 10:15:39;;;;;;;20.02;13.25;;;20.80;36.40;;;;;;5056363;28;20472;-52
2023/03/12 10:18:09;;;;;;;16.42;12.20;;;20.80;36.40;;;;;;5052577;28;20021;-51
2023/03/12 10:20:56;;;;;;;18.02;12.60;;;20.90;36.30;;;;;;5053609;28;20082;-49
2023/03/12 10:23:27;;;;;;;19.48;12.30;;;20.90;36.20;;;;;;5053459;28;20037;-53
2023/03/12 10:26:02;;;;;;;15.70;11.18;;;20.90;36.10;;;;;;5054259;28;20035;-57
2023/03/12 10:28:43;;;;;;;13.98;10.90;;;20.90;35.90;;;;;;5056277;28;20047;-52
2023/03/12 10:31:21;;;;;;;15.32;11.10;;;21.00;35.90;;;;;;5059828;28;20029;-60
2023/03/12 10:33:55;;;;;;;17.00;12.20;;;21.00;35.80;;;;;;5054273;28;20320;-54
2023/03/12 10:36:32;;;;;;;18.70;14.98;;;21.00;36.30;;;;;;5054217;28;20314;-52
2023/03/12 10:38:58;;;;;;;21.40;16.38;;;21.00;37.20;;;;;;5041314;28;20056;-56
2023/03/12 10:41:30;;;;;;;24.23;17.40;;;21.00;38.10;;;;;;5034550;28;20030;-54
2023/03/12 10:44:00;;;;;;;24.77;18.27;;;21.10;39.00;;;;;;5062411;28;20557;-58
2023/03/12 10:46:41;;;;;;;23.13;17.23;;;21.10;39.40;;;;;;5047358;28;20036;-57
2023/03/12 10:49:23;;;;;;;23.80;18.40;;;21.10;39.50;;;;;;5051442;28;20102;-50
2023/03/12 10:52:18;;;;;;;27.30;19.15;;;21.10;39.80;;;;;;5053185;28;20033;-56
2023/03/12 10:54:47;;;;;;;27.98;19.08;;;21.10;40.30;;;;;;5061424;28;20115;-51
2023/03/12 10:57:14;;;;;;;27.45;19.10;;;21.20;40.40;;;;;;5051813;28;20124;-52
2023/03/12 10:59:43;;;;;;;23.85;18.45;;;21.10;40.20;;;;;;5057287;28;20368;-54
2023/03/12 11:02:26;;;;;;;23.63;17.58;;;21.10;39.80;;;;;;5054718;28;20103;-52
2023/03/12 11:04:53;;;;;;;23.20;16.80;;;21.20;39.40;;;;;;5048786;28;20408;-50
2023/03/12 11:07:34;;;;;;;22.30;16.85;;;21.20;39.10;;;;;;5065534;28;20048;-52
2023/03/12 11:10:06;;;;;;;27.08;18.13;;;21.20;39.00;;;;;;5066964;28;20028;-53
2023/03/12 11:12:35;;;;;;;24.17;17.65;;;21.20;39.20;;;;;;5058142;28;20075;-51
2023/03/12 11:15:22;;;;;;;20.45;16.02;;;21.20;39.20;;;;;;5041896;28;20764;-47
2023/03/12 11:17:48;;;;;;;19.15;14.70;;;21.20;38.90;;;;;;5056577;28;20464;-53
2023/03/12 11:20:20;;;;;;;19.73;14.40;;;21.20;38.60;;;;;;5057504;28;20029;-50
2023/03/12 11:22:47;;;;;;;16.83;12.95;;;21.20;38.40;;;;;;5065964;28;20029;-51
2023/03/12 11:25:25;;;;;;;16.90;13.35;;;21.20;38.10;;;;;;5037650;28;20052;-53
2023/03/12 11:27:59;;;;;;;15.48;12.52;;;21.20;38.60;;;;;;5037283;28;20115;-53
2023/03/12 11:30:35;;;;;;;13.73;11.45;;;21.20;37.80;;;;;;5037663;28;20491;-54
2023/03/12 11:33:02;;;;;;;14.70;11.70;;;21.20;37.70;;;;;;5051760;28;20053;-52
2023/03/12 11:35:56;;;;;;;15.35;11.43;;;21.20;37.60;;;;;;5057654;28;20048;-50
2023/03/12 11:38:38;;;;;;;15.65;11.82;;;21.20;37.50;;;;;;5055501;28;20037;-52
2023/03/12 11:41:47;;;;;;;15.02;11.35;;;21.20;37.50;;;;;;5042882;28;20196;-49
2023/03/12 11:44:47;;;;;;;14.02;10.70;;;21.20;37.40;;;;;;5037181;28;20380;-53
2023/03/12 11:47:47;;;;;;;15.48;11.75;;;21.20;37.40;;;;;;5037438;28;20194;-53
2023/03/12 11:50:36;;;;;;;14.85;11.80;;;21.20;37.50;;;;;;5057112;28;20041;-51
2023/03/12 11:53:17;;;;;;;14.82;10.80;;;21.20;37.60;;;;;;5054921;28;20044;-50
2023/03/12 11:55:49;;;;;;;14.80;11.13;;;21.30;37.60;;;;;;5056097;28;20025;-50
2023/03/12 11:58:26;;;;;;;15.10;10.68;;;21.30;37.60;;;;;;5056254;28;20030;-51
2023/03/12 12:00:56;;;;;;;14.82;10.40;;;21.30;37.70;;;;;;5054064;28;20029;-57
2023/03/12 12:03:50;;;;;;;15.80;11.52;;;21.30;37.70;;;;;;5041163;28;20517;-58
2023/03/12 12:06:22;;;;;;;15.50;11.73;;;21.30;37.90;;;;;;5047361;28;20029;-57
2023/03/12 12:09:20;;;;;;;17.77;13.02;;;21.30;38.10;;;;;;5044207;28;20151;-55
2023/03/12 12:12:08;;;;;;;18.75;13.95;;;21.40;38.30;;;;;;5041497;28;20090;-54
2023/03/12 12:14:48;;;;;;;18.58;14.38;;;21.50;38.30;;;;;;5056343;28;20057;-56
2023/03/12 12:17:29;;;;;;;18.40;14.27;;;21.60;38.20;;;;;;5054326;28;20112;-54
2023/03/12 12:20:20;;;;;;;21.05;15.15;;;21.70;38.00;;;;;;5040036;28;20076;-55
2023/03/12 12:23:37;;;;;;;19.10;14.45;;;21.80;37.80;;;;;;5048578;28;20037;-53
2023/03/12 12:26:16;;;;;;;18.50;14.90;;;21.90;37.60;;;;;;5031595;28;20045;-55
2023/03/12 12:29:19;;;;;;;19.23;14.52;;;22.00;37.50;;;;;;5039655;28;20356;-54
2023/03/12 12:31:51;;;;;;;19.60;15.18;;;22.10;37.30;;;;;;5038030;28;20494;-48
2023/03/12 12:34:35;;;;;;;21.40;14.75;;;22.20;37.10;;;;;;5046593;28;20124;-48
2023/03/12 12:37:20;;;;;;;19.85;14.05;;;22.30;37.00;;;;;;5047759;28;20024;-52
2023/03/12 12:40:10;;;;;;;18.27;13.25;;;22.30;36.90;;;;;;5042042;28;20099;-52
2023/03/12 12:42:54;;;;;;;18.98;13.48;;;22.40;36.80;;;;;;5052873;28;20491;-51
2023/03/12 12:45:22;;;;;;;18.70;14.18;;;22.40;36.70;;;;;;5038540;28;20036;-54
2023/03/12 12:47:54;;;;;;;19.10;13.45;;;22.50;36.60;;;;;;5051041;28;20063;-52
2023/03/12 12:50:24;;;;;;;25.65;13.60;;;22.60;36.60;;;;;;5037942;28;20467;-54
2023/03/12 12:53:12;;;;;;;18.20;13.30;;;22.50;36.50;;;;;;5052900;28;20029;-54
2023/03/12 12:56:03;;;;;;;18.75;13.82;;;22.60;36.50;;;;;;5041285;28;20404;-53
2023/03/12 12:59:13;;;;;;;21.30;14.73;;;22.60;36.50;;;;;;5043962;28;20036;-53